Strona główna
METAR-TAF:

METAR-TAF

Lotnisko :

Port lotniczy Helsinki-Vantaa

Helsinki, Finlandia

Szerokość geograficzna: 60-19N, Długość geograficzna: 024-58E, wysokość: 51 m

Aktualna obserwacja pogody

Raport powstał 9 minut temu, godzina 08:50 UTC
Wiatr 5 kt od wschód, zmienny między północny wschód i południowo-południowy wschód
Temperatura 24°C
Wilgotność 41%
Ciśnienie 1017 hPa
Widzialność 10 km lub więcej
Brak chmur poniżej 1500 m i brak chmur cumulonimbus

METAR: EFHK 210850Z 09005KT 050V160 CAVOK 24/10 Q1017 NOSIG

czas: 11:59 (08:59 UTC)

Prognoza

Raport powstał 30 minut temu, godzina 08:29 UTC
Prognoza ważna od 21 godzina 09 UTC do 22 godzina 09 UTC
Wiatr 7 kt od południowo-południowy wschód
Widzialność 10 km lub więcej
Brak chmur poniżej 1500 m i brak chmur cumulonimbus

TAF: EFHK 210829Z 2109/2209 15007KT CAVOK

Obserwacja i prognoza pogody dla ponad 4000 lotnisk (raport METAR i TAF).

Dostępne stacje oznaczono żółtymi i czerwonymi punktami na mapie.

Najedź kursorem aby zobaczyć nazwę stacji.

Kliknij aby zobaczyć obserwacje i prognozy pogody.

Aby zmienić mapę: kliknij na zielony przycisk z czarnym krzyżykiem, aby powiększyć; na zielony przycisk z myślnikiem, aby pomniejszyć; na zielone strzałki, aby przejść do map sąsiednich.


METAR-TAF: